sensor_id;sensor_type;location;lat;lon;timestamp;pressure;altitude;pressure_sealevel;temperature;humidity
66681;BME280;73718;51.366;12.350;2024-01-30T00:01:10;101696.34;;;2.93;100.00
66681;BME280;73718;51.366;12.350;2024-01-30T00:03:36;101700.78;;;2.96;100.00
66681;BME280;73718;51.366;12.350;2024-01-30T00:06:03;101705.38;;;3.02;100.00
66681;BME280;73718;51.366;12.350;2024-01-30T00:08:28;101702.03;;;3.04;100.00
66681;BME280;73718;51.366;12.350;2024-01-30T00:10:54;101697.72;;;3.05;100.00
66681;BME280;73718;51.366;12.350;2024-01-30T00:13:19;101696.66;;;3.00;100.00
66681;BME280;73718;51.366;12.350;2024-01-30T00:15:45;101694.78;;;2.97;100.00
66681;BME280;73718;51.366;12.350;2024-01-30T00:18:11;101692.97;;;2.95;100.00
66681;BME280;73718;51.366;12.350;2024-01-30T00:20:36;101699.03;;;2.95;100.00
66681;BME280;73718;51.366;12.350;2024-01-30T00:23:02;101687.88;;;2.96;100.00
66681;BME280;73718;51.366;12.350;2024-01-30T00:25:27;101694.94;;;3.00;100.00
66681;BME280;73718;51.366;12.350;2024-01-30T00:27:53;101693.41;;;3.04;100.00
66681;BME280;73718;51.366;12.350;2024-01-30T00:30:20;101695.25;;;3.06;100.00
66681;BME280;73718;51.366;12.350;2024-01-30T00:32:45;101690.91;;;3.05;100.00
66681;BME280;73718;51.366;12.350;2024-01-30T00:35:11;101690.00;;;3.05;100.00
66681;BME280;73718;51.366;12.350;2024-01-30T00:37:36;101693.47;;;3.05;100.00
66681;BME280;73718;51.366;12.350;2024-01-30T00:40:02;101690.06;;;3.06;100.00
66681;BME280;73718;51.366;12.350;2024-01-30T00:42:27;101686.69;;;3.07;100.00
66681;BME280;73718;51.366;12.350;2024-01-30T00:44:53;101679.06;;;3.10;100.00
66681;BME280;73718;51.366;12.350;2024-01-30T00:47:18;101683.72;;;3.17;100.00
66681;BME280;73718;51.366;12.350;2024-01-30T00:49:44;101684.75;;;3.21;100.00
66681;BME280;73718;51.366;12.350;2024-01-30T00:52:09;101683.19;;;3.25;100.00
66681;BME280;73718;51.366;12.350;2024-01-30T00:54:35;101676.31;;;3.25;100.00
66681;BME280;73718;51.366;12.350;2024-01-30T00:57:00;101679.03;;;3.28;100.00
66681;BME280;73718;51.366;12.350;2024-01-30T00:59:26;101680.94;;;3.32;99.96
66681;BME280;73718;51.366;12.350;2024-01-30T01:01:51;101675.16;;;3.38;99.38
66681;BME280;73718;51.366;12.350;2024-01-30T01:04:16;101680.66;;;3.46;99.45
66681;BME280;73718;51.366;12.350;2024-01-30T01:06:43;101672.22;;;3.50;99.56
66681;BME280;73718;51.366;12.350;2024-01-30T01:09:10;101675.78;;;3.52;99.39
66681;BME280;73718;51.366;12.350;2024-01-30T01:11:36;101683.38;;;3.49;98.90
66681;BME280;73718;51.366;12.350;2024-01-30T01:14:03;101678.22;;;3.49;97.44
66681;BME280;73718;51.366;12.350;2024-01-30T01:16:28;101675.50;;;3.46;97.47
66681;BME280;73718;51.366;12.350;2024-01-30T01:18:54;101676.31;;;3.45;96.88
66681;BME280;73718;51.366;12.350;2024-01-30T01:21:19;101667.75;;;3.46;96.10
66681;BME280;73718;51.366;12.350;2024-01-30T01:23:45;101671.19;;;3.46;96.50
66681;BME280;73718;51.366;12.350;2024-01-30T01:26:10;101666.81;;;3.44;96.35
66681;BME280;73718;51.366;12.350;2024-01-30T01:28:36;101661.50;;;3.40;97.15
66681;BME280;73718;51.366;12.350;2024-01-30T01:31:01;101661.56;;;3.42;98.16
66681;BME280;73718;51.366;12.350;2024-01-30T01:33:31;101661.34;;;3.37;97.52
66681;BME280;73718;51.366;12.350;2024-01-30T01:35:58;101665.84;;;3.41;97.69
66681;BME280;73718;51.366;12.350;2024-01-30T01:38:23;101661.56;;;3.42;96.70
66681;BME280;73718;51.366;12.350;2024-01-30T01:40:49;101659.16;;;3.47;100.00
66681;BME280;73718;51.366;12.350;2024-01-30T01:43:14;101661.06;;;3.51;97.64
66681;BME280;73718;51.366;12.350;2024-01-30T01:45:39;101659.44;;;3.53;96.67
66681;BME280;73718;51.366;12.350;2024-01-30T01:48:05;101654.56;;;3.59;94.70
66681;BME280;73718;51.366;12.350;2024-01-30T01:50:31;101652.09;;;3.62;94.72
66681;BME280;73718;51.366;12.350;2024-01-30T01:52:58;101654.13;;;3.69;93.40
66681;BME280;73718;51.366;12.350;2024-01-30T01:55:24;101650.06;;;3.74;94.26
66681;BME280;73718;51.366;12.350;2024-01-30T01:57:52;101652.56;;;3.73;94.78
66681;BME280;73718;51.366;12.350;2024-01-30T02:00:19;101647.47;;;3.74;93.73
66681;BME280;73718;51.366;12.350;2024-01-30T02:02:46;101650.09;;;3.76;92.39
66681;BME280;73718;51.366;12.350;2024-01-30T02:05:12;101653.66;;;3.78;92.13
66681;BME280;73718;51.366;12.350;2024-01-30T02:07:38;101654.41;;;3.75;92.23
66681;BME280;73718;51.366;12.350;2024-01-30T02:10:04;101653.44;;;3.73;92.24
66681;BME280;73718;51.366;12.350;2024-01-30T02:12:29;101650.84;;;3.73;91.30
66681;BME280;73718;51.366;12.350;2024-01-30T02:14:55;101639.63;;;3.73;91.28
66681;BME280;73718;51.366;12.350;2024-01-30T02:17:21;101646.38;;;3.69;91.88
66681;BME280;73718;51.366;12.350;2024-01-30T02:19:48;101644.31;;;3.62;93.99
66681;BME280;73718;51.366;12.350;2024-01-30T02:22:14;101642.38;;;3.56;93.65
66681;BME280;73718;51.366;12.350;2024-01-30T02:24:40;101643.47;;;3.42;94.54
66681;BME280;73718;51.366;12.350;2024-01-30T02:27:05;101651.16;;;3.40;95.02
66681;BME280;73718;51.366;12.350;2024-01-30T02:29:30;101650.06;;;3.35;95.57
66681;BME280;73718;51.366;12.350;2024-01-30T02:31:56;101650.47;;;3.25;95.93
66681;BME280;73718;51.366;12.350;2024-01-30T02:34:21;101655.88;;;3.12;96.31
66681;BME280;73718;51.366;12.350;2024-01-30T02:36:47;101650.53;;;3.07;98.02
66681;BME280;73718;51.366;12.350;2024-01-30T02:39:12;101656.41;;;3.05;98.32
66681;BME280;73718;51.366;12.350;2024-01-30T02:41:37;101654.50;;;3.01;98.10
66681;BME280;73718;51.366;12.350;2024-01-30T02:44:03;101650.03;;;2.97;98.49
66681;BME280;73718;51.366;12.350;2024-01-30T02:46:29;101649.19;;;2.98;98.50
66681;BME280;73718;51.366;12.350;2024-01-30T02:48:55;101648.41;;;2.99;98.82
66681;BME280;73718;51.366;12.350;2024-01-30T02:51:20;101643.41;;;3.02;98.46
66681;BME280;73718;51.366;12.350;2024-01-30T02:53:46;101646.09;;;3.05;96.64
66681;BME280;73718;51.366;12.350;2024-01-30T02:56:11;101647.19;;;3.10;97.77
66681;BME280;73718;51.366;12.350;2024-01-30T02:58:39;101646.53;;;3.14;96.69
66681;BME280;73718;51.366;12.350;2024-01-30T03:01:05;101643.94;;;3.14;96.24
66681;BME280;73718;51.366;12.350;2024-01-30T03:03:31;101642.19;;;3.13;96.67
66681;BME280;73718;51.366;12.350;2024-01-30T03:05:56;101641.28;;;3.12;97.16
66681;BME280;73718;51.366;12.350;2024-01-30T03:08:22;101640.03;;;3.04;96.77
66681;BME280;73718;51.366;12.350;2024-01-30T03:10:48;101636.44;;;3.01;97.44
66681;BME280;73718;51.366;12.350;2024-01-30T03:13:13;101636.00;;;3.09;96.06
66681;BME280;73718;51.366;12.350;2024-01-30T03:15:39;101636.94;;;3.11;97.60
66681;BME280;73718;51.366;12.350;2024-01-30T03:18:05;101640.81;;;3.21;95.47
66681;BME280;73718;51.366;12.350;2024-01-30T03:20:30;101635.72;;;3.23;93.57
66681;BME280;73718;51.366;12.350;2024-01-30T03:22:56;101630.53;;;3.23;94.02
66681;BME280;73718;51.366;12.350;2024-01-30T03:25:22;101630.00;;;3.30;93.20
66681;BME280;73718;51.366;12.350;2024-01-30T03:27:47;101629.19;;;3.31;93.66
66681;BME280;73718;51.366;12.350;2024-01-30T03:30:13;101630.59;;;3.24;93.66
66681;BME280;73718;51.366;12.350;2024-01-30T03:32:38;101630.50;;;3.21;94.31
66681;BME280;73718;51.366;12.350;2024-01-30T03:35:04;101625.31;;;3.21;93.40
66681;BME280;73718;51.366;12.350;2024-01-30T03:37:30;101629.66;;;3.22;93.13
66681;BME280;73718;51.366;12.350;2024-01-30T03:39:55;101627.09;;;3.22;93.68
66681;BME280;73718;51.366;12.350;2024-01-30T03:42:21;101627.22;;;3.25;92.28
66681;BME280;73718;51.366;12.350;2024-01-30T03:44:47;101626.47;;;3.28;92.26
66681;BME280;73718;51.366;12.350;2024-01-30T03:47:13;101630.84;;;3.29;92.12
66681;BME280;73718;51.366;12.350;2024-01-30T03:49:38;101623.09;;;3.29;93.81
66681;BME280;73718;51.366;12.350;2024-01-30T03:52:04;101622.22;;;3.28;92.85
66681;BME280;73718;51.366;12.350;2024-01-30T03:54:29;101624.03;;;3.31;91.50
66681;BME280;73718;51.366;12.350;2024-01-30T03:56:55;101611.28;;;3.35;91.93
66681;BME280;73718;51.366;12.350;2024-01-30T03:59:20;101616.81;;;3.43;92.28
66681;BME280;73718;51.366;12.350;2024-01-30T04:01:50;101616.94;;;3.46;90.97
66681;BME280;73718;51.366;12.350;2024-01-30T04:04:17;101617.06;;;3.49;90.14
66681;BME280;73718;51.366;12.350;2024-01-30T04:06:44;101613.63;;;3.49;90.19
66681;BME280;73718;51.366;12.350;2024-01-30T04:09:09;101614.44;;;3.48;89.76
66681;BME280;73718;51.366;12.350;2024-01-30T04:11:35;101619.47;;;3.45;92.00
66681;BME280;73718;51.366;12.350;2024-01-30T04:14:00;101617.28;;;3.34;91.62
66681;BME280;73718;51.366;12.350;2024-01-30T04:16:26;101615.66;;;3.36;91.30
66681;BME280;73718;51.366;12.350;2024-01-30T04:18:52;101615.78;;;3.39;89.47
66681;BME280;73718;51.366;12.350;2024-01-30T04:21:17;101610.59;;;3.39;89.53
66681;BME280;73718;51.366;12.350;2024-01-30T04:23:43;101612.25;;;3.37;90.18
66681;BME280;73718;51.366;12.350;2024-01-30T04:26:09;101621.72;;;3.37;90.25
66681;BME280;73718;51.366;12.350;2024-01-30T04:28:34;101612.13;;;3.34;90.40
66681;BME280;73718;51.366;12.350;2024-01-30T04:31:00;101603.53;;;3.35;88.63
66681;BME280;73718;51.366;12.350;2024-01-30T04:33:25;101604.50;;;3.37;88.66
66681;BME280;73718;51.366;12.350;2024-01-30T04:35:50;101600.38;;;3.41;89.60
66681;BME280;73718;51.366;12.350;2024-01-30T04:38:17;101604.84;;;3.45;88.63
66681;BME280;73718;51.366;12.350;2024-01-30T04:40:42;101600.69;;;3.49;88.04
66681;BME280;73718;51.366;12.350;2024-01-30T04:43:08;101607.63;;;3.50;91.76
66681;BME280;73718;51.366;12.350;2024-01-30T04:45:33;101609.28;;;3.48;88.62
66681;BME280;73718;51.366;12.350;2024-01-30T04:47:58;101604.16;;;3.49;88.96
66681;BME280;73718;51.366;12.350;2024-01-30T04:50:24;101608.16;;;3.42;89.97
66681;BME280;73718;51.366;12.350;2024-01-30T04:52:49;101606.81;;;3.31;90.63
66681;BME280;73718;51.366;12.350;2024-01-30T04:55:15;101610.63;;;3.20;90.56
66681;BME280;73718;51.366;12.350;2024-01-30T04:57:40;101609.47;;;3.13;91.20
66681;BME280;73718;51.366;12.350;2024-01-30T05:00:06;101608.84;;;3.19;89.80
66681;BME280;73718;51.366;12.350;2024-01-30T05:02:32;101615.00;;;3.21;88.69
66681;BME280;73718;51.366;12.350;2024-01-30T05:04:57;101615.94;;;3.23;89.30
66681;BME280;73718;51.366;12.350;2024-01-30T05:07:24;101613.44;;;3.25;89.96
66681;BME280;73718;51.366;12.350;2024-01-30T05:09:50;101614.16;;;3.22;90.13
66681;BME280;73718;51.366;12.350;2024-01-30T05:12:15;101615.25;;;3.27;89.24
66681;BME280;73718;51.366;12.350;2024-01-30T05:14:41;101610.06;;;3.27;89.91
66681;BME280;73718;51.366;12.350;2024-01-30T05:17:06;101610.91;;;3.26;89.02
66681;BME280;73718;51.366;12.350;2024-01-30T05:19:33;101610.97;;;3.28;88.98
66681;BME280;73718;51.366;12.350;2024-01-30T05:21:59;101612.81;;;3.30;88.55
66681;BME280;73718;51.366;12.350;2024-01-30T05:24:24;101613.78;;;3.32;88.96
66681;BME280;73718;51.366;12.350;2024-01-30T05:26:50;101611.88;;;3.28;89.06
66681;BME280;73718;51.366;12.350;2024-01-30T05:29:16;101623.53;;;3.20;90.38
66681;BME280;73718;51.366;12.350;2024-01-30T05:31:42;101625.31;;;3.21;89.26
66681;BME280;73718;51.366;12.350;2024-01-30T05:34:07;101623.81;;;3.26;89.38
66681;BME280;73718;51.366;12.350;2024-01-30T05:36:34;101626.53;;;3.29;86.79
66681;BME280;73718;51.366;12.350;2024-01-30T05:38:59;101623.28;;;3.33;87.33
66681;BME280;73718;51.366;12.350;2024-01-30T05:41:25;101626.22;;;3.22;89.13
66681;BME280;73718;51.366;12.350;2024-01-30T05:43:50;101617.00;;;3.09;89.72
66681;BME280;73718;51.366;12.350;2024-01-30T05:46:16;101618.25;;;3.17;86.96
66681;BME280;73718;51.366;12.350;2024-01-30T05:48:41;101625.91;;;3.35;85.04
66681;BME280;73718;51.366;12.350;2024-01-30T05:51:07;101619.31;;;3.41;85.01
66681;BME280;73718;51.366;12.350;2024-01-30T05:53:32;101618.78;;;3.49;84.88
66681;BME280;73718;51.366;12.350;2024-01-30T05:55:59;101625.84;;;3.53;83.63
66681;BME280;73718;51.366;12.350;2024-01-30T05:58:25;101624.19;;;3.55;82.91
66681;BME280;73718;51.366;12.350;2024-01-30T06:00:50;101624.34;;;3.58;83.82
66681;BME280;73718;51.366;12.350;2024-01-30T06:03:16;101615.78;;;3.59;82.82
66681;BME280;73718;51.366;12.350;2024-01-30T06:05:41;101615.69;;;3.57;82.78
66681;BME280;73718;51.366;12.350;2024-01-30T06:08:07;101613.06;;;3.56;82.93
66681;BME280;73718;51.366;12.350;2024-01-30T06:10:32;101605.31;;;3.56;84.04
66681;BME280;73718;51.366;12.350;2024-01-30T06:12:58;101611.16;;;3.52;83.34
66681;BME280;73718;51.366;12.350;2024-01-30T06:15:23;101611.78;;;3.46;82.66
66681;BME280;73718;51.366;12.350;2024-01-30T06:17:49;101609.19;;;3.46;84.72
66681;BME280;73718;51.366;12.350;2024-01-30T06:20:15;101605.59;;;3.42;83.51
66681;BME280;73718;51.366;12.350;2024-01-30T06:22:40;101609.72;;;3.39;83.91
66681;BME280;73718;51.366;12.350;2024-01-30T06:25:06;101605.94;;;3.31;85.25
66681;BME280;73718;51.366;12.350;2024-01-30T06:27:31;101612.81;;;3.30;84.71
66681;BME280;73718;51.366;12.350;2024-01-30T06:29:56;101616.00;;;3.25;88.37
66681;BME280;73718;51.366;12.350;2024-01-30T06:32:22;101614.84;;;3.18;85.73
66681;BME280;73718;51.366;12.350;2024-01-30T06:34:47;101606.13;;;3.16;85.46
66681;BME280;73718;51.366;12.350;2024-01-30T06:37:13;101614.75;;;3.16;86.64
66681;BME280;73718;51.366;12.350;2024-01-30T06:39:38;101611.97;;;3.12;87.47
66681;BME280;73718;51.366;12.350;2024-01-30T06:42:04;101610.06;;;3.08;86.92
66681;BME280;73718;51.366;12.350;2024-01-30T06:44:30;101609.06;;;3.04;86.53
66681;BME280;73718;51.366;12.350;2024-01-30T06:46:55;101606.47;;;3.04;86.41
66681;BME280;73718;51.366;12.350;2024-01-30T06:49:21;101614.16;;;3.03;86.88
66681;BME280;73718;51.366;12.350;2024-01-30T06:51:47;101612.47;;;3.03;86.07
66681;BME280;73718;51.366;12.350;2024-01-30T06:54:13;101603.16;;;3.07;86.38
66681;BME280;73718;51.366;12.350;2024-01-30T06:56:38;101603.28;;;3.10;85.58
66681;BME280;73718;51.366;12.350;2024-01-30T06:59:04;101602.63;;;3.14;84.64
66681;BME280;73718;51.366;12.350;2024-01-30T07:01:30;101607.00;;;3.16;84.33
66681;BME280;73718;51.366;12.350;2024-01-30T07:03:56;101609.81;;;3.21;83.97
66681;BME280;73718;51.366;12.350;2024-01-30T07:06:22;101609.16;;;3.25;84.86
66681;BME280;73718;51.366;12.350;2024-01-30T07:08:49;101608.38;;;3.28;83.50
66681;BME280;73718;51.366;12.350;2024-01-30T07:11:19;101616.25;;;3.31;85.58
66681;BME280;73718;51.366;12.350;2024-01-30T07:13:45;101605.06;;;3.30;84.49
66681;BME280;73718;51.366;12.350;2024-01-30T07:16:10;101604.19;;;3.30;84.92
66681;BME280;73718;51.366;12.350;2024-01-30T07:18:36;101612.31;;;3.39;83.92
66681;BME280;73718;51.366;12.350;2024-01-30T07:21:01;101609.88;;;3.42;84.49
66681;BME280;73718;51.366;12.350;2024-01-30T07:23:26;101608.31;;;3.46;82.68
66681;BME280;73718;51.366;12.350;2024-01-30T07:25:52;101606.00;;;3.52;81.84
66681;BME280;73718;51.366;12.350;2024-01-30T07:28:17;101605.38;;;3.57;80.86
66681;BME280;73718;51.366;12.350;2024-01-30T07:30:43;101603.06;;;3.63;81.42
66681;BME280;73718;51.366;12.350;2024-01-30T07:33:08;101595.53;;;3.70;79.79
66681;BME280;73718;51.366;12.350;2024-01-30T07:35:35;101595.81;;;3.76;78.43
66681;BME280;73718;51.366;12.350;2024-01-30T07:38:00;101594.44;;;3.84;79.18
66681;BME280;73718;51.366;12.350;2024-01-30T07:40:26;101594.59;;;3.88;80.88
66681;BME280;73718;51.366;12.350;2024-01-30T07:42:53;101592.16;;;3.91;80.35
66681;BME280;73718;51.366;12.350;2024-01-30T07:45:19;101602.75;;;3.98;80.13
66681;BME280;73718;51.366;12.350;2024-01-30T07:47:51;101592.56;;;4.01;78.66
66681;BME280;73718;51.366;12.350;2024-01-30T07:50:16;101591.16;;;4.09;77.94
66681;BME280;73718;51.366;12.350;2024-01-30T07:52:42;101594.06;;;4.17;78.13
66681;BME280;73718;51.366;12.350;2024-01-30T07:55:08;101597.81;;;4.25;76.43
66681;BME280;73718;51.366;12.350;2024-01-30T07:57:33;101591.19;;;4.31;77.00
66681;BME280;73718;51.366;12.350;2024-01-30T07:59:59;101595.75;;;4.38;77.48
66681;BME280;73718;51.366;12.350;2024-01-30T08:02:25;101596.84;;;4.44;76.58
66681;BME280;73718;51.366;12.350;2024-01-30T08:04:50;101603.22;;;4.52;76.11
66681;BME280;73718;51.366;12.350;2024-01-30T08:07:16;101602.50;;;4.56;74.57
66681;BME280;73718;51.366;12.350;2024-01-30T08:09:43;101596.66;;;4.61;74.47
66681;BME280;73718;51.366;12.350;2024-01-30T08:12:08;101593.44;;;4.67;73.80
66681;BME280;73718;51.366;12.350;2024-01-30T08:14:34;101587.59;;;4.73;73.73
66681;BME280;73718;51.366;12.350;2024-01-30T08:16:59;101591.38;;;4.81;73.27
66681;BME280;73718;51.366;12.350;2024-01-30T08:19:24;101595.03;;;4.86;72.71
66681;BME280;73718;51.366;12.350;2024-01-30T08:21:50;101597.78;;;4.91;73.38
66681;BME280;73718;51.366;12.350;2024-01-30T08:24:15;101592.72;;;4.94;72.75
66681;BME280;73718;51.366;12.350;2024-01-30T08:26:41;101597.31;;;5.01;71.96
66681;BME280;73718;51.366;12.350;2024-01-30T08:29:06;101591.53;;;5.08;72.78
66681;BME280;73718;51.366;12.350;2024-01-30T08:31:32;101591.72;;;5.14;71.66
66681;BME280;73718;51.366;12.350;2024-01-30T08:33:57;101591.97;;;5.20;71.50
66681;BME280;73718;51.366;12.350;2024-01-30T08:36:23;101596.56;;;5.27;71.03
66681;BME280;73718;51.366;12.350;2024-01-30T08:38:49;101595.94;;;5.34;70.91
66681;BME280;73718;51.366;12.350;2024-01-30T08:41:14;101588.25;;;5.37;70.83
66681;BME280;73718;51.366;12.350;2024-01-30T08:43:40;101593.63;;;5.42;70.02
66681;BME280;73718;51.366;12.350;2024-01-30T08:46:05;101595.53;;;5.48;69.20
66681;BME280;73718;51.366;12.350;2024-01-30T08:48:31;101597.50;;;5.55;70.38
66681;BME280;73718;51.366;12.350;2024-01-30T08:50:57;101594.19;;;5.59;70.01
66681;BME280;73718;51.366;12.350;2024-01-30T08:53:22;101592.63;;;5.64;69.20
66681;BME280;73718;51.366;12.350;2024-01-30T08:55:47;101587.66;;;5.70;70.13
66681;BME280;73718;51.366;12.350;2024-01-30T08:58:13;101580.13;;;5.76;68.96
66681;BME280;73718;51.366;12.350;2024-01-30T09:00:38;101584.50;;;5.79;69.88
66681;BME280;73718;51.366;12.350;2024-01-30T09:03:04;101585.63;;;5.87;71.55
66681;BME280;73718;51.366;12.350;2024-01-30T09:05:29;101581.59;;;5.95;68.77
66681;BME280;73718;51.366;12.350;2024-01-30T09:07:55;101585.41;;;6.05;67.94
66681;BME280;73718;51.366;12.350;2024-01-30T09:10:20;101579.69;;;6.15;68.66
66681;BME280;73718;51.366;12.350;2024-01-30T09:12:46;101586.84;;;6.22;68.06
66681;BME280;73718;51.366;12.350;2024-01-30T09:15:11;101582.78;;;6.30;66.73
66681;BME280;73718;51.366;12.350;2024-01-30T09:17:37;101578.78;;;6.42;66.48
66681;BME280;73718;51.366;12.350;2024-01-30T09:20:02;101586.06;;;6.53;66.20
66681;BME280;73718;51.366;12.350;2024-01-30T09:22:28;101576.91;;;6.65;65.76
66681;BME280;73718;51.366;12.350;2024-01-30T09:24:53;101584.19;;;6.78;65.05
66681;BME280;73718;51.366;12.350;2024-01-30T09:27:19;101586.28;;;6.90;65.12
66681;BME280;73718;51.366;12.350;2024-01-30T09:29:44;101580.53;;;7.00;64.68
66681;BME280;73718;51.366;12.350;2024-01-30T09:32:09;101579.81;;;7.05;64.74
66681;BME280;73718;51.366;12.350;2024-01-30T09:34:35;101579.25;;;7.17;64.76
66681;BME280;73718;51.366;12.350;2024-01-30T09:37:00;101580.38;;;7.25;63.76
66681;BME280;73718;51.366;12.350;2024-01-30T09:39:26;101580.59;;;7.33;63.81
66681;BME280;73718;51.366;12.350;2024-01-30T09:42:02;101577.25;;;7.39;63.58
66681;BME280;73718;51.366;12.350;2024-01-30T09:44:30;101574.84;;;7.45;63.91
66681;BME280;73718;51.366;12.350;2024-01-30T09:46:56;101576.00;;;7.56;62.99
66681;BME280;73718;51.366;12.350;2024-01-30T09:49:24;101570.19;;;7.66;63.06
66681;BME280;73718;51.366;12.350;2024-01-30T09:51:50;101573.84;;;7.74;62.35
66681;BME280;73718;51.366;12.350;2024-01-30T09:54:16;101568.72;;;7.76;63.45
66681;BME280;73718;51.366;12.350;2024-01-30T09:56:42;101565.44;;;7.85;62.95
66681;BME280;73718;51.366;12.350;2024-01-30T09:59:07;101570.06;;;7.95;61.98
66681;BME280;73718;51.366;12.350;2024-01-30T10:01:34;101571.81;;;7.96;62.78
66681;BME280;73718;51.366;12.350;2024-01-30T10:04:01;101571.03;;;8.00;62.62
66681;BME280;73718;51.366;12.350;2024-01-30T10:06:26;101566.94;;;8.10;62.57
66681;BME280;73718;51.366;12.350;2024-01-30T10:08:53;101574.81;;;8.13;62.67
66681;BME280;73718;51.366;12.350;2024-01-30T10:11:18;101568.09;;;8.21;62.53
66681;BME280;73718;51.366;12.350;2024-01-30T10:13:43;101569.78;;;8.20;62.59
66681;BME280;73718;51.366;12.350;2024-01-30T10:16:09;101567.41;;;8.29;62.64
66681;BME280;73718;51.366;12.350;2024-01-30T10:18:34;101565.13;;;8.42;62.59
66681;BME280;73718;51.366;12.350;2024-01-30T10:21:00;101559.13;;;8.46;62.64
66681;BME280;73718;51.366;12.350;2024-01-30T10:23:26;101554.78;;;8.45;62.81
66681;BME280;73718;51.366;12.350;2024-01-30T10:25:51;101561.81;;;8.50;62.81
66681;BME280;73718;51.366;12.350;2024-01-30T10:28:17;101554.06;;;8.52;62.84
66681;BME280;73718;51.366;12.350;2024-01-30T10:30:43;101545.56;;;8.61;62.67
66681;BME280;73718;51.366;12.350;2024-01-30T10:33:08;101542.34;;;8.72;62.60
66681;BME280;73718;51.366;12.350;2024-01-30T10:35:34;101539.81;;;8.75;63.02
66681;BME280;73718;51.366;12.350;2024-01-30T10:38:00;101542.44;;;8.77;62.71
66681;BME280;73718;51.366;12.350;2024-01-30T10:40:28;101539.09;;;8.84;62.80
66681;BME280;73718;51.366;12.350;2024-01-30T10:42:55;101525.41;;;8.94;63.22
66681;BME280;73718;51.366;12.350;2024-01-30T10:45:22;101528.19;;;9.02;62.94
66681;BME280;73718;51.366;12.350;2024-01-30T10:47:53;101525.72;;;9.11;62.34
66681;BME280;73718;51.366;12.350;2024-01-30T10:50:19;101530.28;;;9.21;62.36
66681;BME280;73718;51.366;12.350;2024-01-30T10:52:45;101517.25;;;9.23;63.10
66681;BME280;73718;51.366;12.350;2024-01-30T10:55:12;101517.31;;;9.24;62.61
66681;BME280;73718;51.366;12.350;2024-01-30T10:57:38;101519.03;;;9.24;62.78
66681;BME280;73718;51.366;12.350;2024-01-30T11:00:07;101516.50;;;9.28;62.60
66681;BME280;73718;51.366;12.350;2024-01-30T11:02:44;101514.00;;;9.35;62.76
66681;BME280;73718;51.366;12.350;2024-01-30T11:05:12;101511.53;;;9.42;62.63
66681;BME280;73718;51.366;12.350;2024-01-30T11:07:39;101518.66;;;9.51;62.62
66681;BME280;73718;51.366;12.350;2024-01-30T11:10:06;101510.84;;;9.52;62.69
66681;BME280;73718;51.366;12.350;2024-01-30T11:12:38;101521.47;;;9.65;62.57
66681;BME280;73718;51.366;12.350;2024-01-30T11:15:18;101511.16;;;9.71;62.61
66681;BME280;73718;51.366;12.350;2024-01-30T11:20:25;101514.81;;;9.81;62.92
66681;BME280;73718;51.366;12.350;2024-01-30T11:22:53;101511.41;;;9.86;63.42
66681;BME280;73718;51.366;12.350;2024-01-30T11:25:23;101509.84;;;9.96;63.48
66681;BME280;73718;51.366;12.350;2024-01-30T11:27:52;101511.53;;;9.94;62.54
66681;BME280;73718;51.366;12.350;2024-01-30T11:33:04;101509.75;;;9.91;63.46
66681;BME280;73718;51.366;12.350;2024-01-30T11:35:37;101501.16;;;9.98;63.80
66681;BME280;73718;51.366;12.350;2024-01-30T11:38:04;101510.66;;;9.93;64.12
66681;BME280;73718;51.366;12.350;2024-01-30T11:40:31;101509.03;;;10.00;64.12
66681;BME280;73718;51.366;12.350;2024-01-30T11:42:59;101509.16;;;10.09;64.47
66681;BME280;73718;51.366;12.350;2024-01-30T11:45:26;101503.13;;;10.13;64.69
66681;BME280;73718;51.366;12.350;2024-01-30T11:47:52;101507.47;;;10.11;64.74
66681;BME280;73718;51.366;12.350;2024-01-30T11:50:18;101503.13;;;10.15;64.80
66681;BME280;73718;51.366;12.350;2024-01-30T11:52:44;101497.22;;;10.25;64.54
66681;BME280;73718;51.366;12.350;2024-01-30T11:55:10;101493.06;;;10.39;64.23
66681;BME280;73718;51.366;12.350;2024-01-30T11:57:35;101490.66;;;10.53;64.32
66681;BME280;73718;51.366;12.350;2024-01-30T12:00:03;101489.88;;;10.63;63.75
66681;BME280;73718;51.366;12.350;2024-01-30T12:02:33;101484.78;;;10.72;63.67
66681;BME280;73718;51.366;12.350;2024-01-30T12:05:04;101476.19;;;10.83;63.39
66681;BME280;73718;51.366;12.350;2024-01-30T12:07:30;101477.97;;;10.87;63.59
66681;BME280;73718;51.366;12.350;2024-01-30T12:09:55;101473.59;;;10.87;62.94
66681;BME280;73718;51.366;12.350;2024-01-30T12:12:25;101478.13;;;10.99;63.38
66681;BME280;73718;51.366;12.350;2024-01-30T12:14:51;101479.03;;;11.04;63.74
66681;BME280;73718;51.366;12.350;2024-01-30T12:17:30;101478.16;;;11.04;63.82
66681;BME280;73718;51.366;12.350;2024-01-30T12:22:28;101473.88;;;11.12;64.13
66681;BME280;73718;51.366;12.350;2024-01-30T12:24:53;101467.78;;;11.13;64.84
66681;BME280;73718;51.366;12.350;2024-01-30T12:27:19;101465.31;;;11.27;64.66
66681;BME280;73718;51.366;12.350;2024-01-30T12:29:44;101461.03;;;11.36;65.18
66681;BME280;73718;51.366;12.350;2024-01-30T12:32:15;101450.63;;;11.44;64.48
66681;BME280;73718;51.366;12.350;2024-01-30T12:34:41;101456.78;;;11.51;65.12
66681;BME280;73718;51.366;12.350;2024-01-30T12:37:07;101451.59;;;11.54;65.46
66681;BME280;73718;51.366;12.350;2024-01-30T12:39:35;101447.22;;;11.53;65.73
66681;BME280;73718;51.366;12.350;2024-01-30T12:42:00;101439.44;;;11.60;65.84
66681;BME280;73718;51.366;12.350;2024-01-30T12:44:26;101437.72;;;11.65;66.45
66681;BME280;73718;51.366;12.350;2024-01-30T12:46:51;101429.88;;;11.65;66.54
66681;BME280;73718;51.366;12.350;2024-01-30T12:49:17;101431.56;;;11.57;67.75